AUA9PW LOWI-LOWW
Flight info
| Callsign | AUA9PW |
|---|---|
| Flight time | 0h 46m |
| Altitude | 29000 |
| Route | RTT DCT NEMAL NEMAL2W |
| Aircraft | A320/M-SDE3FGHIRWY/LB1 |
Departure
| Time | 2026-04-25 18:26 |
|---|---|
| Airport | Innsbruck Airport (LOWI) |
Arrival
| Time | 2026-04-25 19:12 |
|---|---|
| Airport | Vienna International Airport (LOWW) |
| Time | Latitude | Longitude | Altitude | Speed | Heading |
|---|---|---|---|---|---|
| 2026-04-25 17:46 | 47.25828 | 11.35110 | 1908 ft | 0 kts | 172° |
| 2026-04-25 18:12 | 47.25841 | 11.35107 | 1894 ft | 4 kts | 173° |
| 2026-04-25 18:12 | 47.25867 | 11.35105 | 1899 ft | 4 kts | 189° |
| 2026-04-25 18:13 | 47.25886 | 11.35118 | 1893 ft | 2 kts | 259° |
| 2026-04-25 18:13 | 47.25886 | 11.35121 | 1893 ft | 0 kts | 261° |
| 2026-04-25 18:21 | 47.25882 | 11.35083 | 1900 ft | 9 kts | 261° |
| 2026-04-25 18:22 | 47.25870 | 11.34961 | 1905 ft | 13 kts | 261° |
| 2026-04-25 18:22 | 47.25865 | 11.34918 | 1897 ft | 13 kts | 261° |
| 2026-04-25 18:22 | 47.25842 | 11.34717 | 1909 ft | 15 kts | 261° |
| 2026-04-25 18:22 | 47.25823 | 11.34530 | 1911 ft | 20 kts | 261° |
| 2026-04-25 18:23 | 47.25800 | 11.34323 | 1913 ft | 21 kts | 261° |
| 2026-04-25 18:23 | 47.25777 | 11.34109 | 1906 ft | 21 kts | 261° |
| 2026-04-25 18:23 | 47.25800 | 11.33902 | 1917 ft | 21 kts | 301° |
| 2026-04-25 18:23 | 47.25886 | 11.33724 | 1918 ft | 21 kts | 306° |
| 2026-04-25 18:24 | 47.25931 | 11.33565 | 1918 ft | 17 kts | 261° |
| 2026-04-25 18:24 | 47.25912 | 11.33390 | 1918 ft | 18 kts | 261° |
| 2026-04-25 18:24 | 47.25890 | 11.33235 | 1919 ft | 10 kts | 235° |
| 2026-04-25 18:24 | 47.25844 | 11.33176 | 1920 ft | 9 kts | 243° |
| 2026-04-25 18:25 | 47.25859 | 11.33080 | 1922 ft | 10 kts | 346° |
| 2026-04-25 18:25 | 47.25885 | 11.33136 | 1919 ft | 0 kts | 82° |
| 2026-04-25 18:25 | 47.25885 | 11.33140 | 1919 ft | 6 kts | 82° |
| 2026-04-25 18:25 | 47.25939 | 11.33639 | 1918 ft | 89 kts | 81° |
| 2026-04-25 18:26 | 47.26071 | 11.34857 | 1916 ft | 149 kts | 80° |
| 2026-04-25 18:26 | 47.26252 | 11.36397 | 2485 ft | 151 kts | 77° |
| 2026-04-25 18:26 | 47.26449 | 11.37918 | 3169 ft | 152 kts | 77° |
| 2026-04-25 18:26 | 47.26655 | 11.39459 | 3795 ft | 154 kts | 77° |
| 2026-04-25 18:27 | 47.26861 | 11.41012 | 4395 ft | 155 kts | 77° |
| 2026-04-25 18:27 | 47.27062 | 11.42568 | 5007 ft | 154 kts | 76° |
| 2026-04-25 18:27 | 47.27268 | 11.44138 | 5445 ft | 164 kts | 76° |
| 2026-04-25 18:27 | 47.27577 | 11.45845 | 5752 ft | 181 kts | 72° |
| 2026-04-25 18:28 | 47.27940 | 11.47698 | 6097 ft | 193 kts | 72° |
| 2026-04-25 18:28 | 47.28310 | 11.49627 | 6564 ft | 198 kts | 72° |
| 2026-04-25 18:28 | 47.28687 | 11.51600 | 6988 ft | 202 kts | 72° |
| 2026-04-25 18:29 | 47.29455 | 11.55670 | 7901 ft | 210 kts | 72° |
| 2026-04-25 18:29 | 47.29844 | 11.57750 | 8355 ft | 212 kts | 73° |
| 2026-04-25 18:30 | 47.31057 | 11.64136 | 9738 ft | 219 kts | 68° |
| 2026-04-25 18:30 | 47.31800 | 11.66133 | 10088 ft | 229 kts | 52° |
| 2026-04-25 18:30 | 47.32754 | 11.68119 | 10245 ft | 251 kts | 52° |
| 2026-04-25 18:30 | 47.33823 | 11.70352 | 10508 ft | 276 kts | 52° |
| 2026-04-25 18:31 | 47.34961 | 11.72739 | 10870 ft | 300 kts | 52° |
| 2026-04-25 18:31 | 47.36205 | 11.75362 | 11217 ft | 324 kts | 53° |
| 2026-04-25 18:31 | 47.37533 | 11.78171 | 11713 ft | 340 kts | 53° |
| 2026-04-25 18:31 | 47.38900 | 11.81071 | 12508 ft | 346 kts | 53° |
| 2026-04-25 18:32 | 47.40165 | 11.84137 | 13317 ft | 352 kts | 60° |
| 2026-04-25 18:32 | 47.41259 | 11.87396 | 14136 ft | 356 kts | 63° |
| 2026-04-25 18:32 | 47.41939 | 11.89608 | 14616 ft | 359 kts | 64° |
| 2026-04-25 18:32 | 47.42935 | 11.93013 | 15347 ft | 363 kts | 65° |
| 2026-04-25 18:33 | 47.43933 | 11.96455 | 16039 ft | 367 kts | 64° |
| 2026-04-25 18:33 | 47.44981 | 11.99910 | 16746 ft | 370 kts | 63° |
| 2026-04-25 18:33 | 47.46076 | 12.03381 | 17428 ft | 374 kts | 63° |
| 2026-04-25 18:33 | 47.47200 | 12.06873 | 18112 ft | 378 kts | 62° |
| 2026-04-25 18:34 | 47.48343 | 12.10395 | 18728 ft | 382 kts | 62° |
| 2026-04-25 18:34 | 47.49497 | 12.13957 | 19325 ft | 386 kts | 63° |
| 2026-04-25 18:34 | 47.50659 | 12.17558 | 19891 ft | 390 kts | 63° |
| 2026-04-25 18:34 | 47.51826 | 12.21199 | 20466 ft | 393 kts | 63° |
| 2026-04-25 18:35 | 47.52999 | 12.24874 | 21025 ft | 397 kts | 63° |
| 2026-04-25 18:35 | 47.54178 | 12.28590 | 21615 ft | 400 kts | 63° |
| 2026-04-25 18:35 | 47.55365 | 12.32333 | 22158 ft | 403 kts | 63° |
| 2026-04-25 18:35 | 47.56567 | 12.36113 | 22722 ft | 407 kts | 63° |
| 2026-04-25 18:36 | 47.57779 | 12.39933 | 23263 ft | 411 kts | 63° |
| 2026-04-25 18:36 | 47.58993 | 12.43779 | 23788 ft | 414 kts | 63° |
| 2026-04-25 18:36 | 47.60217 | 12.47657 | 24245 ft | 417 kts | 63° |
| 2026-04-25 18:36 | 47.61448 | 12.51568 | 24734 ft | 420 kts | 63° |
| 2026-04-25 18:37 | 47.62683 | 12.55499 | 25221 ft | 422 kts | 63° |
| 2026-04-25 18:37 | 47.63924 | 12.59456 | 25672 ft | 424 kts | 63° |
| 2026-04-25 18:37 | 47.65175 | 12.63436 | 26112 ft | 427 kts | 63° |
| 2026-04-25 18:37 | 47.66432 | 12.67438 | 26565 ft | 429 kts | 63° |
| 2026-04-25 18:38 | 47.67693 | 12.71462 | 27013 ft | 431 kts | 63° |
| 2026-04-25 18:38 | 47.68959 | 12.75510 | 27425 ft | 433 kts | 63° |
| 2026-04-25 18:38 | 47.70228 | 12.79584 | 27844 ft | 435 kts | 63° |
| 2026-04-25 18:38 | 47.71484 | 12.83627 | 28255 ft | 438 kts | 63° |
| 2026-04-25 18:39 | 47.72764 | 12.87751 | 28663 ft | 441 kts | 63° |
| 2026-04-25 18:39 | 47.74050 | 12.91890 | 29004 ft | 443 kts | 63° |
| 2026-04-25 18:39 | 47.76573 | 13.00038 | 29083 ft | 420 kts | 63° |
| 2026-04-25 18:40 | 47.78983 | 13.07846 | 29086 ft | 413 kts | 63° |
| 2026-04-25 18:40 | 47.81383 | 13.15611 | 29085 ft | 413 kts | 63° |
| 2026-04-25 18:41 | 47.83773 | 13.23399 | 29080 ft | 414 kts | 63° |
| 2026-04-25 18:41 | 47.86160 | 13.31202 | 29082 ft | 414 kts | 63° |
| 2026-04-25 18:42 | 47.88155 | 13.37756 | 29071 ft | 415 kts | 63° |
| 2026-04-25 18:42 | 47.90852 | 13.46905 | 29063 ft | 416 kts | 69° |
| 2026-04-25 18:43 | 47.91792 | 13.55413 | 29051 ft | 419 kts | 89° |
| 2026-04-25 18:43 | 47.91737 | 13.64157 | 29068 ft | 423 kts | 89° |
| 2026-04-25 18:44 | 47.91707 | 13.72920 | 29063 ft | 423 kts | 89° |
| 2026-04-25 18:44 | 47.91666 | 13.81706 | 29068 ft | 424 kts | 90° |
| 2026-04-25 18:45 | 47.91612 | 13.90500 | 29065 ft | 424 kts | 90° |
| 2026-04-25 18:45 | 47.91546 | 13.99243 | 29058 ft | 425 kts | 90° |
| 2026-04-25 18:46 | 47.91473 | 14.08063 | 29049 ft | 425 kts | 90° |
| 2026-04-25 18:46 | 47.91394 | 14.16878 | 29043 ft | 425 kts | 90° |
| 2026-04-25 18:47 | 47.91309 | 14.25690 | 28729 ft | 422 kts | 90° |
| 2026-04-25 18:47 | 47.91267 | 14.29992 | 28456 ft | 420 kts | 90° |
| 2026-04-25 18:47 | 47.91222 | 14.34389 | 28186 ft | 418 kts | 90° |
| 2026-04-25 18:48 | 47.91172 | 14.38709 | 27894 ft | 414 kts | 90° |
| 2026-04-25 18:48 | 47.91121 | 14.42979 | 27462 ft | 409 kts | 90° |
| 2026-04-25 18:48 | 47.91072 | 14.47189 | 27028 ft | 404 kts | 90° |
| 2026-04-25 18:48 | 47.91026 | 14.51304 | 26608 ft | 400 kts | 90° |
| 2026-04-25 18:49 | 47.90979 | 14.55441 | 26175 ft | 397 kts | 90° |
| 2026-04-25 18:49 | 47.90931 | 14.59543 | 25736 ft | 394 kts | 90° |
| 2026-04-25 18:49 | 47.90878 | 14.63613 | 25292 ft | 392 kts | 90° |
| 2026-04-25 18:49 | 47.90821 | 14.67676 | 24845 ft | 390 kts | 90° |
| 2026-04-25 18:50 | 47.90761 | 14.71706 | 24388 ft | 389 kts | 90° |
| 2026-04-25 18:50 | 47.90701 | 14.75730 | 23927 ft | 387 kts | 90° |
| 2026-04-25 18:50 | 47.90641 | 14.79745 | 23425 ft | 387 kts | 90° |
| 2026-04-25 18:50 | 47.90591 | 14.83739 | 22973 ft | 384 kts | 89° |
| 2026-04-25 18:51 | 47.90589 | 14.87722 | 22461 ft | 383 kts | 88° |
| 2026-04-25 18:51 | 47.90610 | 14.90349 | 22158 ft | 382 kts | 88° |
| 2026-04-25 18:51 | 47.90683 | 14.95620 | 21590 ft | 379 kts | 87° |
| 2026-04-25 18:51 | 47.90740 | 14.99533 | 21181 ft | 376 kts | 88° |
| 2026-04-25 18:52 | 47.90788 | 15.03431 | 20766 ft | 374 kts | 88° |
| 2026-04-25 18:52 | 47.90827 | 15.07298 | 20358 ft | 372 kts | 88° |
| 2026-04-25 18:52 | 47.90861 | 15.11144 | 19979 ft | 369 kts | 88° |
| 2026-04-25 18:52 | 47.90890 | 15.14957 | 19580 ft | 367 kts | 88° |
| 2026-04-25 18:53 | 47.90918 | 15.18750 | 19197 ft | 365 kts | 88° |
| 2026-04-25 18:53 | 47.90944 | 15.22521 | 18819 ft | 363 kts | 88° |
| 2026-04-25 18:53 | 47.90967 | 15.26273 | 18463 ft | 361 kts | 88° |
| 2026-04-25 18:53 | 47.90988 | 15.30002 | 17855 ft | 365 kts | 88° |
| 2026-04-25 18:54 | 47.91027 | 15.37513 | 17121 ft | 359 kts | 88° |
| 2026-04-25 18:54 | 47.91043 | 15.41229 | 16720 ft | 357 kts | 88° |
| 2026-04-25 18:54 | 47.91056 | 15.44919 | 16348 ft | 356 kts | 88° |
| 2026-04-25 18:55 | 47.91069 | 15.48597 | 15995 ft | 352 kts | 88° |
| 2026-04-25 18:55 | 47.91084 | 15.52241 | 15624 ft | 351 kts | 88° |
| 2026-04-25 18:55 | 47.91101 | 15.55876 | 15229 ft | 350 kts | 88° |
| 2026-04-25 18:55 | 47.91118 | 15.59489 | 14875 ft | 348 kts | 88° |
| 2026-04-25 18:56 | 47.91138 | 15.63077 | 14510 ft | 346 kts | 88° |
| 2026-04-25 18:56 | 47.91151 | 15.66657 | 14164 ft | 344 kts | 88° |
| 2026-04-25 18:56 | 47.91160 | 15.70216 | 13815 ft | 343 kts | 88° |
| 2026-04-25 18:56 | 47.91168 | 15.73754 | 13526 ft | 338 kts | 88° |
| 2026-04-25 18:57 | 47.91173 | 15.77241 | 13164 ft | 334 kts | 88° |
| 2026-04-25 18:57 | 47.91177 | 15.80695 | 12789 ft | 332 kts | 88° |
| 2026-04-25 18:57 | 47.91180 | 15.84128 | 12412 ft | 330 kts | 88° |
| 2026-04-25 18:57 | 47.91181 | 15.85234 | 12299 ft | 329 kts | 88° |
| 2026-04-25 18:58 | 47.91186 | 15.90914 | 11721 ft | 325 kts | 88° |
| 2026-04-25 18:58 | 47.91194 | 15.97571 | 10994 ft | 321 kts | 88° |
| 2026-04-25 18:58 | 47.91195 | 16.00881 | 10643 ft | 318 kts | 88° |
| 2026-04-25 18:59 | 47.91189 | 16.07427 | 9997 ft | 312 kts | 88° |
| 2026-04-25 18:59 | 47.91184 | 16.13788 | 9384 ft | 304 kts | 88° |
| 2026-04-25 19:00 | 47.91178 | 16.20028 | 8626 ft | 299 kts | 88° |
| 2026-04-25 19:00 | 47.91169 | 16.23109 | 8264 ft | 296 kts | 88° |
| 2026-04-25 19:01 | 47.91151 | 16.29201 | 7513 ft | 292 kts | 88° |
| 2026-04-25 19:01 | 47.91144 | 16.32218 | 7144 ft | 290 kts | 88° |
| 2026-04-25 19:01 | 47.91137 | 16.35207 | 6762 ft | 287 kts | 88° |
| 2026-04-25 19:01 | 47.91127 | 16.38170 | 6423 ft | 284 kts | 88° |
| 2026-04-25 19:02 | 47.91105 | 16.44015 | 5993 ft | 276 kts | 88° |
| 2026-04-25 19:02 | 47.91093 | 16.46804 | 5878 ft | 263 kts | 88° |
| 2026-04-25 19:02 | 47.91080 | 16.49474 | 5735 ft | 252 kts | 88° |
| 2026-04-25 19:03 | 47.91063 | 16.52933 | 5394 ft | 247 kts | 88° |
| 2026-04-25 19:03 | 47.91045 | 16.57174 | 4899 ft | 246 kts | 88° |
| 2026-04-25 19:03 | 47.91035 | 16.59723 | 4612 ft | 245 kts | 88° |
| 2026-04-25 19:04 | 47.91011 | 16.64781 | 4035 ft | 243 kts | 88° |
| 2026-04-25 19:04 | 47.90997 | 16.67298 | 3995 ft | 244 kts | 89° |
| 2026-04-25 19:05 | 47.90962 | 16.72386 | 4008 ft | 245 kts | 88° |
| 2026-04-25 19:05 | 47.92087 | 16.76832 | 3632 ft | 231 kts | 33° |
| 2026-04-25 19:05 | 47.93496 | 16.77898 | 3305 ft | 227 kts | 17° |
| 2026-04-25 19:06 | 47.94978 | 16.78706 | 3033 ft | 225 kts | 15° |
| 2026-04-25 19:06 | 47.97940 | 16.80279 | 3003 ft | 223 kts | 14° |
| 2026-04-25 19:06 | 47.99385 | 16.80492 | 3002 ft | 200 kts | 343° |
| 2026-04-25 19:07 | 48.01670 | 16.78700 | 3018 ft | 178 kts | 326° |
| 2026-04-25 19:07 | 48.02708 | 16.77711 | 3009 ft | 176 kts | 326° |
| 2026-04-25 19:08 | 48.04413 | 16.76074 | 3003 ft | 175 kts | 325° |
| 2026-04-25 19:08 | 48.05258 | 16.74797 | 2983 ft | 174 kts | 300° |
| 2026-04-25 19:09 | 48.06753 | 16.70254 | 2465 ft | 149 kts | 297° |
| 2026-04-25 19:09 | 48.07048 | 16.69354 | 2342 ft | 145 kts | 296° |
| 2026-04-25 19:09 | 48.08030 | 16.66355 | 1899 ft | 130 kts | 297° |
| 2026-04-25 19:10 | 48.08428 | 16.65138 | 1739 ft | 129 kts | 294° |
| 2026-04-25 19:10 | 48.08817 | 16.63932 | 1563 ft | 128 kts | 296° |
| 2026-04-25 19:10 | 48.09218 | 16.62733 | 1403 ft | 131 kts | 294° |
| 2026-04-25 19:10 | 48.09609 | 16.61524 | 1221 ft | 129 kts | 293° |
| 2026-04-25 19:11 | 48.09998 | 16.60331 | 1081 ft | 127 kts | 296° |
| 2026-04-25 19:11 | 48.10384 | 16.59141 | 895 ft | 126 kts | 296° |
| 2026-04-25 19:11 | 48.10774 | 16.57967 | 727 ft | 126 kts | 295° |
| 2026-04-25 19:11 | 48.11152 | 16.56812 | 617 ft | 115 kts | 295° |
| 2026-04-25 19:12 | 48.11455 | 16.55873 | 620 ft | 85 kts | 295° |
| 2026-04-25 19:12 | 48.11677 | 16.55189 | 623 ft | 58 kts | 295° |
| 2026-04-25 19:12 | 48.11792 | 16.54841 | 623 ft | 32 kts | 300° |
| 2026-04-25 19:12 | 48.11935 | 16.54620 | 620 ft | 26 kts | 324° |
| 2026-04-25 19:13 | 48.12034 | 16.54535 | 611 ft | 10 kts | 350° |
| 2026-04-25 19:13 | 48.12073 | 16.54549 | 610 ft | 0 kts | 30° |
| 2026-04-25 19:14 | 48.12076 | 16.54552 | 610 ft | 0 kts | 30° |
| 2026-04-25 19:14 | 48.12079 | 16.54556 | 620 ft | 4 kts | 39° |
| 2026-04-25 19:14 | 48.12051 | 16.54686 | 626 ft | 11 kts | 119° |
| 2026-04-25 19:14 | 48.12019 | 16.54788 | 626 ft | 10 kts | 115° |
| 2026-04-25 19:15 | 48.11989 | 16.54882 | 623 ft | 10 kts | 116° |
| 2026-04-25 19:15 | 48.11961 | 16.54967 | 619 ft | 9 kts | 116° |
| 2026-04-25 19:15 | 48.11932 | 16.55054 | 612 ft | 14 kts | 116° |
| 2026-04-25 19:15 | 48.11869 | 16.55247 | 619 ft | 22 kts | 115° |
| 2026-04-25 19:16 | 48.11806 | 16.55443 | 610 ft | 20 kts | 116° |
| 2026-04-25 19:16 | 48.11747 | 16.55624 | 621 ft | 19 kts | 116° |
| 2026-04-25 19:16 | 48.11692 | 16.55793 | 613 ft | 17 kts | 116° |
| 2026-04-25 19:16 | 48.11640 | 16.55951 | 622 ft | 16 kts | 116° |
| 2026-04-25 19:17 | 48.11593 | 16.56098 | 614 ft | 15 kts | 116° |
| 2026-04-25 19:17 | 48.11535 | 16.56276 | 614 ft | 26 kts | 116° |
| 2026-04-25 19:17 | 48.11453 | 16.56526 | 614 ft | 27 kts | 116° |
| 2026-04-25 19:17 | 48.11373 | 16.56772 | 612 ft | 25 kts | 116° |
| 2026-04-25 19:18 | 48.11300 | 16.56997 | 610 ft | 23 kts | 116° |
| 2026-04-25 19:18 | 48.11236 | 16.57192 | 621 ft | 16 kts | 114° |
| 2026-04-25 19:18 | 48.11268 | 16.57299 | 613 ft | 12 kts | 25° |
| 2026-04-25 19:18 | 48.11342 | 16.57351 | 610 ft | 11 kts | 25° |
| 2026-04-25 19:19 | 48.11415 | 16.57404 | 614 ft | 14 kts | 26° |
| 2026-04-25 19:19 | 48.11520 | 16.57461 | 610 ft | 18 kts | 1° |
| 2026-04-25 19:19 | 48.11647 | 16.57413 | 617 ft | 20 kts | 344° |
| 2026-04-25 19:19 | 48.11737 | 16.57375 | 613 ft | 18 kts | 345° |
| 2026-04-25 19:20 | 48.11846 | 16.57241 | 611 ft | 15 kts | 295° |
| 2026-04-25 19:20 | 48.11867 | 16.57102 | 617 ft | 13 kts | 297° |
| 2026-04-25 19:20 | 48.11903 | 16.56995 | 616 ft | 7 kts | 296° |
| 2026-04-25 19:20 | 48.11883 | 16.56960 | 618 ft | 4 kts | 209° |
| 2026-04-25 19:21 | 48.11860 | 16.56943 | 610 ft | 3 kts | 206° |
| 2026-04-25 19:21 | 48.11845 | 16.56931 | 620 ft | 0 kts | 206° |